Timmins/Victor M. Power
CYTS : rendu visible

Aérodrome :











RETROUVEZ-NOUS SUR...

 
LOGIN :

S'inscrire | Disclaimer

   EN    FR    IT 

 









Légende :    VFR   VFR Marginal   IFR   IFR Intensif   IFR Très Intensif
Visi : 
Plafond : 
>= 8 km
>= 3000ft
5 à 8 km
1000 à 3000 ft
1500m à 5 km
500 à 1000 ft
800 à 1500m
200 à 500 ft
< 800m
< 200 ft
Symboles :   Orages  Brouillard  Fortes neiges  Fortes précipitations  Vent > 20 kt






- Altitude de l'aérodrome : 967 ft
- Code IATA : YTS


CYTS - Timmins/Victor M. Power

DERNIER METAR :
  • 190400Z 31008KT 4SM -SN DRSN FEW012 SCT020 BKN050 OVC100 M14/M17 A3000 RMK SC2SC2SC2AC2 SLP184

METARs EXPIRÉS :
  • 190300Z 29014G22KT 3SM -SN DRSN SCT012 BKN020 OVC055 M13/M16 A2996 RMK SC3SC4SC1 PRESRR SLP171
  • 190200Z 31017G24KT 4SM -SN DRSN FEW012 BKN020 OVC055 M12/M15 A2991 RMK SC2SC4SC2 PRESRR SLP154

TAF TAF CYTS
Valide du 19 à 02h jusqu'au 19 à 14h UTC


190138Z 1902/1914 31012G22KT 11/2SM -SN OVC012
TEMPO 1902/1905 6SM -SN OVC025
FM190500 32010G20KT P6SM -SN SCT015 OVC030
TEMPO 1905/1907 2SM -SN BKN015 OVC030
FM190700 32012KT P6SM BKN030
TEMPO 1907/1914 5SM -SN BKN020 RMK NXT FCST BY 190800Z



MET'MAP, la Météo Aéronautique d'un coup d'oeil ! - Copyright ORBIFLY Décembre 2007 - Disclaimer

ORBIFLY MET'MAP TEAM :

Programmation & Développement : Alexandra Zaïnal
Sur une idée originale de : Baudouin d'Aumeries
Assistance à la programmation : Marc-Olivier Méhu
Soutien technique & logistique : Manuel Goepfert

Contact : metmap@orbifly.com




SOURCES & CREDITS :

   NOAA       Earth
Advisory